createdAt,value
2024-03-23T00:00:28.730Z,13.90
2024-03-23T00:03:16.916Z,13.90
2024-03-23T00:05:45.324Z,14.10
2024-03-23T00:08:13.633Z,13.20
2024-03-23T00:10:42.337Z,13.20
2024-03-23T00:13:10.633Z,12.80
2024-03-23T00:15:38.850Z,11.10
2024-03-23T00:18:07.021Z,12.00
2024-03-23T00:20:35.606Z,12.10
2024-03-23T00:23:03.849Z,11.80
2024-03-23T00:25:32.156Z,12.90
2024-03-23T00:28:00.585Z,12.80
2024-03-23T00:30:28.846Z,11.20
2024-03-23T00:32:57.176Z,12.20
2024-03-23T00:35:25.444Z,10.40
2024-03-23T00:37:53.683Z,11.10
2024-03-23T00:40:22.130Z,10.90
2024-03-23T00:42:50.295Z,11.10
2024-03-23T00:45:18.590Z,11.70
2024-03-23T00:47:46.889Z,10.50
2024-03-23T00:50:15.632Z,9.90
2024-03-23T00:52:43.861Z,12.40
2024-03-23T00:55:12.311Z,11.10
2024-03-23T00:57:40.517Z,11.00
2024-03-23T01:00:11.508Z,11.90
2024-03-23T01:02:39.728Z,12.00
2024-03-23T01:05:08.199Z,11.70
2024-03-23T01:07:36.461Z,12.20
2024-03-23T01:10:05.529Z,12.20
2024-03-23T01:12:33.823Z,11.80
2024-03-23T01:15:02.156Z,12.70
2024-03-23T01:17:30.462Z,12.20
2024-03-23T01:19:58.832Z,12.70
2024-03-23T01:22:27.125Z,12.30
2024-03-23T01:24:55.386Z,10.80
2024-03-23T01:27:24.337Z,13.10
2024-03-23T01:29:53.572Z,10.80
2024-03-23T01:32:21.833Z,12.40
2024-03-23T01:34:50.509Z,12.20
2024-03-23T01:37:18.853Z,13.40
2024-03-23T01:39:47.083Z,12.00
2024-03-23T01:42:15.353Z,12.00
2024-03-23T01:44:43.635Z,12.40
2024-03-23T01:47:12.012Z,11.90
2024-03-23T01:49:40.522Z,12.40
2024-03-23T01:52:09.419Z,11.80
2024-03-23T01:54:39.223Z,12.50
2024-03-23T01:57:07.825Z,14.20
2024-03-23T01:59:36.849Z,13.60
2024-03-23T02:02:05.447Z,12.80
2024-03-23T02:04:33.830Z,12.90
2024-03-23T02:07:02.231Z,12.10
2024-03-23T02:09:31.339Z,12.30
2024-03-23T02:11:59.870Z,12.50
2024-03-23T02:14:28.180Z,12.90
2024-03-23T02:16:56.644Z,12.50
2024-03-23T02:19:25.386Z,14.20
2024-03-23T02:21:53.748Z,12.80
2024-03-23T02:24:22.116Z,13.10
2024-03-23T02:26:50.598Z,12.00
2024-03-23T02:29:20.651Z,11.30
2024-03-23T02:31:49.028Z,12.80
2024-03-23T02:34:17.334Z,11.80
2024-03-23T02:36:45.619Z,12.60
2024-03-23T02:39:13.993Z,11.90
2024-03-23T02:41:42.306Z,11.50
2024-03-23T02:44:12.924Z,11.20
2024-03-23T02:46:41.496Z,11.80
2024-03-23T02:49:09.719Z,11.60
2024-03-23T02:51:37.884Z,13.10
2024-03-23T02:54:06.388Z,12.10
2024-03-23T02:56:34.695Z,10.90
2024-03-23T02:59:02.872Z,11.70
2024-03-23T03:01:31.366Z,11.60
2024-03-23T03:03:59.923Z,13.10
2024-03-23T03:06:28.995Z,11.50
2024-03-23T03:08:57.382Z,12.60
2024-03-23T03:11:25.725Z,13.80
2024-03-23T03:13:57.023Z,12.50
2024-03-23T03:16:25.480Z,12.00
2024-03-23T03:18:53.964Z,12.90
2024-03-23T03:21:23.102Z,13.50
2024-03-23T03:23:51.541Z,12.50
2024-03-23T03:26:20.306Z,11.40
2024-03-23T03:28:50.004Z,12.50
2024-03-23T03:31:21.961Z,14.70
2024-03-23T03:33:52.620Z,13.60
2024-03-23T03:36:21.283Z,13.30
2024-03-23T03:38:49.688Z,13.30
2024-03-23T03:41:19.848Z,11.90
2024-03-23T03:43:48.266Z,12.10
2024-03-23T03:46:16.670Z,12.90
2024-03-23T03:48:46.217Z,12.30
2024-03-23T03:51:14.568Z,13.40
2024-03-23T03:53:42.887Z,13.00
2024-03-23T03:56:11.271Z,13.60
2024-03-23T03:58:39.739Z,12.30
2024-03-23T04:01:07.971Z,12.10
2024-03-23T04:03:36.713Z,12.80
2024-03-23T04:06:05.341Z,12.50
2024-03-23T04:08:33.586Z,11.90
2024-03-23T04:11:01.948Z,11.50
2024-03-23T04:13:30.394Z,11.90
2024-03-23T04:15:58.541Z,13.10
2024-03-23T04:18:26.763Z,12.10
2024-03-23T04:20:55.102Z,11.90
2024-03-23T04:23:23.692Z,12.00
2024-03-23T04:25:54.400Z,13.20
2024-03-23T04:28:23.413Z,13.40
2024-03-23T04:30:51.753Z,12.70
2024-03-23T04:33:20.184Z,12.50
2024-03-23T04:35:51.163Z,12.50
2024-03-23T04:38:19.318Z,11.10
2024-03-23T04:40:56.579Z,13.50
2024-03-23T04:43:25.113Z,12.50
2024-03-23T04:45:53.682Z,15.00
2024-03-23T04:48:23.596Z,15.80
2024-03-23T04:50:58.649Z,12.70
2024-03-23T04:53:29.609Z,12.10
2024-03-23T04:56:03.170Z,12.10
2024-03-23T04:58:31.451Z,12.60
2024-03-23T05:00:59.675Z,13.90
2024-03-23T05:03:27.982Z,13.00
2024-03-23T05:05:56.427Z,11.20
2024-03-23T05:08:24.830Z,12.10
2024-03-23T05:10:53.244Z,12.80
2024-03-23T05:13:21.466Z,13.30
2024-03-23T05:15:56.342Z,13.10
2024-03-23T05:18:27.710Z,13.30
2024-03-23T05:21:00.320Z,13.10
2024-03-23T05:23:30.473Z,11.00
2024-03-23T05:25:58.873Z,10.90
2024-03-23T05:28:27.214Z,14.00
2024-03-23T05:30:56.915Z,13.90
2024-03-23T05:33:25.386Z,12.50
2024-03-23T05:36:01.760Z,12.90
2024-03-23T05:38:29.974Z,11.20
2024-03-23T05:41:03.035Z,11.70
2024-03-23T05:43:32.423Z,10.20
2024-03-23T05:46:08.943Z,11.40
2024-03-23T05:48:37.729Z,12.10
2024-03-23T05:51:06.127Z,12.00
2024-03-23T05:53:35.233Z,12.90
2024-03-23T05:56:05.056Z,12.60
2024-03-23T05:58:34.006Z,12.50
2024-03-23T06:01:03.370Z,12.70
2024-03-23T06:03:31.795Z,11.60
2024-03-23T06:06:00.354Z,12.50
2024-03-23T06:08:28.775Z,11.20
2024-03-23T06:10:57.136Z,11.70
2024-03-23T06:13:30.966Z,12.90
2024-03-23T06:15:59.808Z,13.00
2024-03-23T06:18:28.904Z,11.80
2024-03-23T06:20:57.361Z,14.30
2024-03-23T06:23:28.566Z,11.30
2024-03-23T06:25:57.038Z,12.10
2024-03-23T06:28:25.388Z,11.90
2024-03-23T06:30:53.801Z,12.90
2024-03-23T06:33:22.186Z,13.30
2024-03-23T06:35:54.130Z,14.00
2024-03-23T06:38:22.383Z,13.10
2024-03-23T06:40:51.932Z,13.10
2024-03-23T06:43:20.232Z,12.70
2024-03-23T06:45:55.447Z,12.10
2024-03-23T06:48:24.226Z,13.00
2024-03-23T06:50:59.808Z,12.40
2024-03-23T06:53:28.319Z,13.20
2024-03-23T06:55:56.817Z,13.80
2024-03-23T06:58:26.509Z,14.10
2024-03-23T07:00:54.870Z,14.00
2024-03-23T07:03:24.206Z,12.30
2024-03-23T07:05:52.593Z,12.80
2024-03-23T07:08:23.497Z,12.60
2024-03-23T07:10:51.918Z,14.00
2024-03-23T07:13:20.603Z,13.40
2024-03-23T07:15:56.820Z,12.80
2024-03-23T07:18:25.444Z,13.10
2024-03-23T07:20:57.988Z,13.30
2024-03-23T07:23:26.674Z,14.40
2024-03-23T07:26:02.871Z,14.50
2024-03-23T07:28:33.890Z,13.50
2024-03-23T07:31:06.395Z,11.70
2024-03-23T07:33:34.700Z,13.60
2024-03-23T07:36:06.783Z,12.70
2024-03-23T07:38:35.434Z,13.00
2024-03-23T07:41:11.265Z,14.10
2024-03-23T07:43:41.493Z,14.60
2024-03-23T07:46:10.006Z,14.90
2024-03-23T07:48:38.338Z,15.10
2024-03-23T07:51:12.283Z,14.70
2024-03-23T07:53:40.887Z,15.00
2024-03-23T07:56:13.364Z,15.50
2024-03-23T07:58:42.150Z,14.80
2024-03-23T08:01:18.534Z,15.60
2024-03-23T08:03:47.560Z,15.10
2024-03-23T08:06:18.085Z,15.60
2024-03-23T08:08:47.731Z,15.30
2024-03-23T08:11:16.319Z,11.20
2024-03-23T08:13:46.815Z,13.10
2024-03-23T08:16:15.480Z,13.50
2024-03-23T08:18:44.203Z,9.20
2024-03-23T08:21:12.916Z,10.80
2024-03-23T08:23:41.934Z,11.30
2024-03-23T08:26:12.619Z,11.00
2024-03-23T08:28:41.291Z,10.70
2024-03-23T08:31:11.862Z,9.20
2024-03-23T08:33:41.462Z,11.00
2024-03-23T08:36:15.504Z,11.50
2024-03-23T08:38:44.104Z,10.80
2024-03-23T08:41:14.434Z,9.90
2024-03-23T08:43:45.282Z,10.30
2024-03-23T08:46:16.600Z,10.20
2024-03-23T08:48:47.531Z,9.80
2024-03-23T08:51:19.065Z,9.50
2024-03-23T08:53:47.810Z,11.00
2024-03-23T08:56:17.057Z,10.70
2024-03-23T08:58:45.492Z,10.10
2024-03-23T09:01:14.831Z,9.80
2024-03-23T09:03:43.430Z,8.90
2024-03-23T09:06:13.786Z,11.20
2024-03-23T09:08:43.001Z,10.10
2024-03-23T09:11:14.547Z,10.10
2024-03-23T09:13:43.084Z,9.70
2024-03-23T09:16:11.747Z,10.70
2024-03-23T09:18:40.446Z,10.20
2024-03-23T09:21:16.817Z,10.60
2024-03-23T09:23:46.267Z,11.10
2024-03-23T09:26:14.743Z,9.10
2024-03-23T09:28:44.218Z,10.60
2024-03-23T09:31:16.330Z,10.30
2024-03-23T09:33:44.790Z,10.20
2024-03-23T09:36:13.343Z,10.90
2024-03-23T09:38:42.677Z,11.20
2024-03-23T09:41:11.490Z,11.80
2024-03-23T09:43:40.288Z,10.90
2024-03-23T09:46:09.425Z,10.30
2024-03-23T09:48:38.214Z,12.10
2024-03-23T09:51:09.327Z,9.50
2024-03-23T09:53:38.574Z,12.00
2024-03-23T09:56:08.492Z,12.20
2024-03-23T09:58:37.656Z,9.50
2024-03-23T10:03:23.358Z,11.30
2024-03-23T10:06:06.163Z,11.90
2024-03-23T10:08:38.774Z,9.70
2024-03-23T10:11:17.203Z,9.40
2024-03-23T10:13:49.410Z,9.60
2024-03-23T10:16:25.230Z,12.20
2024-03-23T10:18:53.534Z,12.80
2024-03-23T10:21:21.987Z,10.30
2024-03-23T10:23:51.006Z,9.40
2024-03-23T10:26:22.547Z,9.10
2024-03-23T10:29:03.224Z,10.90
2024-03-23T10:31:37.335Z,9.70
2024-03-23T10:34:05.758Z,10.00
2024-03-23T10:36:36.467Z,10.10
2024-03-23T10:39:09.071Z,9.00
2024-03-23T10:41:38.510Z,9.90
2024-03-23T10:44:07.811Z,8.80
2024-03-23T10:46:38.850Z,9.00
2024-03-23T10:49:08.583Z,8.70
2024-03-23T10:51:38.762Z,8.40
2024-03-23T10:54:08.320Z,9.60
2024-03-23T10:56:38.339Z,10.10
2024-03-23T10:59:09.763Z,9.00
2024-03-23T11:01:55.724Z,8.90
2024-03-23T11:04:40.659Z,12.40
2024-03-23T11:07:27.647Z,9.90
2024-03-23T11:09:56.630Z,9.20
2024-03-23T11:12:25.319Z,9.20
2024-03-23T11:14:55.268Z,13.10
2024-03-23T11:17:24.894Z,11.80
2024-03-23T11:20:06.863Z,8.20
2024-03-23T11:22:54.053Z,10.10
2024-03-23T11:25:27.733Z,9.60
2024-03-23T11:27:58.322Z,8.80
2024-03-23T11:30:31.989Z,9.10
2024-03-23T11:33:03.259Z,10.00
2024-03-23T11:35:36.252Z,9.20
2024-03-23T11:38:06.456Z,10.50
2024-03-23T11:40:36.371Z,8.50
2024-03-23T11:43:06.522Z,9.40
2024-03-23T11:45:46.067Z,9.70
2024-03-23T11:48:19.548Z,10.20
2024-03-23T11:50:50.460Z,11.80
2024-03-23T11:53:23.824Z,8.90
2024-03-23T11:55:55.481Z,9.80
2024-03-23T11:58:28.920Z,14.40
2024-03-23T12:01:08.440Z,11.20
2024-03-23T12:03:38.014Z,8.70
2024-03-23T12:06:08.237Z,8.00
2024-03-23T12:08:36.864Z,8.90
2024-03-23T12:11:11.958Z,8.30
2024-03-23T12:13:44.602Z,9.20
2024-03-23T12:16:18.977Z,7.90
2024-03-23T12:18:50.277Z,9.00
2024-03-23T12:21:18.891Z,8.70
2024-03-23T12:23:48.085Z,8.30
2024-03-23T12:26:17.850Z,9.40
2024-03-23T12:28:46.190Z,8.00
2024-03-23T12:31:14.646Z,8.50
2024-03-23T12:33:43.711Z,9.90
2024-03-23T12:36:12.330Z,8.70
2024-03-23T12:38:40.932Z,8.60
2024-03-23T12:41:36.770Z,8.00
2024-03-23T12:46:35.448Z,9.20
2024-03-23T12:49:03.729Z,8.60
2024-03-23T12:52:35.233Z,9.10
2024-03-23T12:55:06.362Z,7.50
2024-03-23T12:57:35.457Z,8.40
2024-03-23T13:00:05.327Z,8.50
2024-03-23T13:02:36.166Z,7.60
2024-03-23T13:05:04.985Z,8.30
2024-03-23T13:07:33.343Z,8.20
2024-03-23T13:10:01.971Z,9.10
2024-03-23T13:12:30.443Z,8.90
2024-03-23T13:14:58.746Z,7.70
2024-03-23T13:17:28.299Z,8.80
2024-03-23T13:19:59.789Z,9.50
2024-03-23T13:22:28.326Z,9.20
2024-03-23T13:24:56.599Z,7.60
2024-03-23T13:27:25.140Z,7.50
2024-03-23T13:29:54.223Z,7.30
2024-03-23T13:32:22.540Z,7.60
2024-03-23T13:34:54.142Z,8.40
2024-03-23T13:37:22.924Z,6.70
2024-03-23T13:39:51.276Z,7.50
2024-03-23T13:42:19.708Z,8.90
2024-03-23T13:44:48.234Z,6.30
2024-03-23T13:47:16.602Z,7.80
2024-03-23T13:49:45.159Z,8.00
2024-03-23T13:52:13.564Z,9.10
2024-03-23T13:54:47.340Z,8.70
2024-03-23T13:57:15.706Z,7.50
2024-03-23T13:59:44.086Z,7.70
2024-03-23T14:02:15.658Z,7.40
2024-03-23T14:04:44.253Z,16.50
2024-03-23T14:07:12.818Z,8.40
2024-03-23T14:09:41.294Z,8.00
2024-03-23T14:12:10.862Z,7.20
2024-03-23T14:14:39.333Z,9.40
2024-03-23T14:17:07.852Z,8.80
2024-03-23T14:19:36.138Z,7.30
2024-03-23T14:22:05.412Z,9.00
2024-03-23T14:24:34.846Z,12.10
2024-03-23T14:27:06.396Z,7.80
2024-03-23T14:29:36.460Z,7.50
2024-03-23T14:32:06.311Z,9.90
2024-03-23T14:34:34.559Z,9.50
2024-03-23T14:37:02.939Z,10.30
2024-03-23T14:39:35.631Z,8.50
2024-03-23T14:42:05.120Z,8.40
2024-03-23T14:44:33.390Z,9.00
2024-03-23T14:47:01.810Z,8.50
2024-03-23T14:49:30.101Z,9.10
2024-03-23T14:51:59.224Z,9.00
2024-03-23T14:54:27.910Z,8.00
2024-03-23T14:56:58.831Z,9.40
2024-03-23T14:59:27.506Z,9.70
2024-03-23T15:01:56.376Z,9.00
2024-03-23T15:04:25.077Z,8.90
2024-03-23T15:06:53.730Z,12.10
2024-03-23T15:09:22.211Z,9.50
2024-03-23T15:11:50.870Z,12.70
2024-03-23T15:14:19.802Z,11.60
2024-03-23T15:16:50.274Z,12.60
2024-03-23T15:19:18.717Z,11.50
2024-03-23T15:21:47.555Z,11.40
2024-03-23T15:24:15.965Z,11.10
2024-03-23T15:26:45.510Z,11.90
2024-03-23T15:29:17.826Z,12.40
2024-03-23T15:31:47.423Z,12.90
2024-03-23T15:34:16.021Z,13.80
2024-03-23T15:36:45.775Z,13.50
2024-03-23T15:39:15.445Z,12.70
2024-03-23T15:41:46.352Z,13.90
2024-03-23T15:44:14.730Z,14.40
2024-03-23T15:46:43.355Z,12.00
2024-03-23T15:49:12.076Z,12.90
2024-03-23T15:51:43.297Z,12.50
2024-03-23T15:54:14.732Z,12.40
2024-03-23T15:56:43.519Z,13.40
2024-03-23T15:59:12.328Z,13.50
2024-03-23T16:01:41.270Z,12.60
2024-03-23T16:04:09.724Z,12.10
2024-03-23T16:06:38.060Z,13.50
2024-03-23T16:09:06.667Z,12.30
2024-03-23T16:11:35.151Z,13.10
2024-03-23T16:14:03.684Z,13.00
2024-03-23T16:16:32.519Z,12.10
2024-03-23T16:19:01.202Z,13.00
2024-03-23T16:21:29.792Z,12.80
2024-03-23T16:23:59.010Z,12.20
2024-03-23T16:26:27.843Z,13.40
2024-03-23T16:29:06.762Z,13.50
2024-03-23T16:31:35.482Z,14.70
2024-03-23T16:34:04.467Z,15.10
2024-03-23T16:36:33.249Z,14.80
2024-03-23T16:39:01.844Z,14.80
2024-03-23T16:41:30.242Z,14.10
2024-03-23T16:43:58.812Z,14.50
2024-03-23T16:46:27.869Z,13.90
2024-03-23T16:48:57.265Z,14.90
2024-03-23T16:51:26.057Z,16.50
2024-03-23T16:53:58.455Z,15.90
2024-03-23T16:56:28.748Z,14.50
2024-03-23T16:58:59.295Z,15.60
2024-03-23T17:01:29.212Z,14.30
2024-03-23T17:03:59.247Z,15.90
2024-03-23T17:06:27.948Z,15.10
2024-03-23T17:08:57.693Z,14.70
2024-03-23T17:11:26.430Z,13.30
2024-03-23T17:13:56.941Z,14.80
2024-03-23T17:16:27.020Z,15.50
2024-03-23T17:18:55.601Z,16.70
2024-03-23T17:21:24.545Z,14.40
2024-03-23T17:23:54.826Z,14.40
2024-03-23T17:26:28.334Z,13.40
2024-03-23T17:28:56.765Z,14.50
2024-03-23T17:31:25.741Z,15.00
2024-03-23T17:33:54.356Z,14.00
2024-03-23T17:36:29.336Z,15.80
2024-03-23T17:38:58.384Z,16.20
2024-03-23T17:41:28.843Z,17.60
2024-03-23T17:43:57.472Z,15.40
2024-03-23T17:46:26.035Z,16.50
2024-03-23T17:48:54.362Z,16.10
2024-03-23T17:51:23.264Z,15.90
2024-03-23T17:53:52.066Z,17.60
2024-03-23T17:56:20.880Z,17.80
2024-03-23T17:58:49.914Z,17.70
2024-03-23T18:01:22.858Z,18.20
2024-03-23T18:03:55.046Z,16.80
2024-03-23T18:06:24.062Z,16.70
2024-03-23T18:08:52.976Z,16.70
2024-03-23T18:11:21.469Z,17.60
2024-03-23T18:13:50.176Z,18.10
2024-03-23T18:16:28.607Z,17.90
2024-03-23T18:18:57.898Z,17.20
2024-03-23T18:21:29.115Z,18.90
2024-03-23T18:23:57.524Z,18.30
2024-03-23T18:26:26.244Z,16.70
2024-03-23T18:28:54.925Z,19.30
2024-03-23T18:31:23.304Z,19.60
2024-03-23T18:33:52.702Z,16.80
2024-03-23T18:37:00.250Z,22.40
2024-03-23T18:39:30.251Z,23.00
2024-03-23T18:41:58.677Z,23.20
2024-03-23T18:44:27.189Z,24.90
2024-03-23T18:47:04.281Z,27.40
2024-03-23T18:49:32.650Z,24.70
2024-03-23T18:52:01.920Z,21.80
2024-03-23T18:54:30.800Z,23.50
2024-03-23T18:57:00.170Z,20.60
2024-03-23T18:59:29.190Z,15.80
2024-03-23T19:01:58.736Z,15.70
2024-03-23T19:04:27.112Z,18.20
2024-03-23T19:06:55.641Z,17.30
2024-03-23T19:09:27.077Z,17.30
2024-03-23T19:11:55.752Z,19.30
2024-03-23T19:14:24.905Z,19.20
2024-03-23T19:16:54.897Z,17.30
2024-03-23T19:19:23.229Z,17.10
2024-03-23T19:21:52.279Z,21.00
2024-03-23T19:24:20.867Z,18.90
2024-03-23T19:26:49.411Z,18.10
2024-03-23T19:29:20.755Z,17.80
2024-03-23T19:31:49.200Z,17.80
2024-03-23T19:34:18.216Z,18.50
2024-03-23T19:36:46.709Z,17.80
2024-03-23T19:39:15.479Z,19.70
2024-03-23T19:41:45.981Z,22.50
2024-03-23T19:44:14.994Z,17.30
2024-03-23T19:46:43.310Z,17.30
2024-03-23T19:49:12.198Z,16.60
2024-03-23T19:51:40.961Z,16.30
2024-03-23T19:54:14.820Z,16.20
2024-03-23T19:56:51.102Z,15.90
2024-03-23T20:02:49.006Z,18.30
2024-03-23T20:05:20.985Z,17.40
2024-03-23T20:07:51.686Z,16.20
2024-03-23T20:10:20.211Z,17.80
2024-03-23T20:12:48.881Z,15.80
2024-03-23T20:15:19.816Z,15.50
2024-03-23T20:17:49.933Z,17.60
2024-03-23T20:20:19.842Z,16.10
2024-03-23T20:22:51.402Z,15.40
2024-03-23T20:25:20.063Z,15.00
2024-03-23T20:27:48.445Z,15.10
2024-03-23T20:30:17.641Z,17.40
2024-03-23T20:32:46.010Z,14.70
2024-03-23T20:35:16.851Z,13.60
2024-03-23T20:37:45.311Z,13.00
2024-03-23T20:40:14.175Z,14.20
2024-03-23T20:42:42.731Z,15.50
2024-03-23T20:45:11.293Z,12.80
2024-03-23T20:47:39.866Z,13.20
2024-03-23T20:50:09.288Z,14.30
2024-03-23T20:52:37.789Z,13.40
2024-03-23T20:55:10.177Z,13.60
2024-03-23T20:57:43.363Z,13.40
2024-03-23T21:00:12.598Z,11.20
2024-03-23T21:02:43.007Z,12.00
2024-03-23T21:05:14.043Z,11.20
2024-03-23T21:07:42.460Z,15.10
2024-03-23T21:10:10.912Z,11.00
2024-03-23T21:12:41.898Z,10.80
2024-03-23T21:15:11.015Z,10.50
2024-03-23T21:17:39.410Z,11.00
2024-03-23T21:20:12.802Z,12.50
2024-03-23T21:22:41.451Z,13.10
2024-03-23T21:25:12.958Z,12.70
2024-03-23T21:27:41.604Z,13.50
2024-03-23T21:30:10.157Z,13.80
2024-03-23T21:32:38.680Z,13.90
2024-03-23T21:35:07.438Z,14.00
2024-03-23T21:37:35.934Z,14.00
2024-03-23T21:40:06.317Z,14.50
2024-03-23T21:42:34.949Z,13.10
2024-03-23T21:45:06.391Z,13.80
2024-03-23T21:47:36.100Z,13.30
2024-03-23T21:50:04.946Z,12.20
2024-03-23T21:52:36.459Z,13.30
2024-03-23T21:55:05.824Z,13.50
2024-03-23T21:57:39.934Z,13.70
2024-03-23T22:02:26.894Z,13.50
2024-03-23T22:04:56.468Z,14.50
2024-03-23T22:07:29.109Z,14.80
2024-03-23T22:09:59.518Z,14.20
2024-03-23T22:12:28.074Z,16.10
2024-03-23T22:14:56.449Z,15.90
2024-03-23T22:17:27.059Z,14.70
2024-03-23T22:19:55.450Z,16.90
2024-03-23T22:22:23.843Z,16.80
2024-03-23T22:24:53.424Z,17.10
2024-03-23T22:27:21.888Z,16.20
2024-03-23T22:29:50.061Z,17.30
2024-03-23T22:32:18.542Z,18.90
2024-03-23T22:34:48.933Z,16.40
2024-03-23T22:37:19.708Z,14.40
2024-03-23T22:39:50.084Z,14.10
2024-03-23T22:42:18.608Z,15.00
2024-03-23T22:44:46.951Z,15.40
2024-03-23T22:47:15.626Z,14.50
2024-03-23T22:49:43.998Z,16.00
2024-03-23T22:52:12.242Z,15.30
2024-03-23T22:54:40.785Z,14.80
2024-03-23T22:57:09.152Z,14.50
2024-03-23T22:59:37.534Z,16.50
2024-03-23T23:02:06.070Z,15.90
2024-03-23T23:04:35.470Z,17.50
2024-03-23T23:07:05.325Z,14.00
2024-03-23T23:09:34.011Z,14.60
2024-03-23T23:12:02.346Z,16.00
2024-03-23T23:14:31.729Z,14.50
2024-03-23T23:17:00.139Z,15.20
2024-03-23T23:19:28.432Z,16.80
2024-03-23T23:21:56.933Z,14.60
2024-03-23T23:24:25.255Z,15.70
2024-03-23T23:26:54.454Z,15.20
2024-03-23T23:29:22.932Z,15.70
2024-03-23T23:31:51.438Z,15.50
2024-03-23T23:34:19.729Z,13.60
2024-03-23T23:36:48.183Z,14.40
2024-03-23T23:39:16.569Z,15.80
2024-03-23T23:41:44.836Z,13.60
2024-03-23T23:44:14.237Z,14.80
2024-03-23T23:46:42.595Z,14.70
2024-03-23T23:49:10.935Z,13.40
2024-03-23T23:51:39.331Z,14.20
2024-03-23T23:54:08.024Z,14.90
2024-03-23T23:56:36.386Z,14.80
2024-03-23T23:59:04.916Z,14.30
